Baton Rouge — 2CZZ7 — position and weather

sailwx.info

Track history (hours):
 
Tides and Currents Weather Stations Pressure Air Temp Water Temp Dewpoint Dewpoint Depression Visibility Wind Speed Wind Dir Waves Ship Positions

Baton Rouge

Last reported at 2017-Jan-19 18:22 UTC. Time now 2017-Jan-19 19:19 UTC.
Position N 18°02' W 063°06'.

Length 62 m; draft 3.7 m.

Type: Pleasure craft. MMSI: 235077185.

Date/timePositionNaut miles runAvg speedWind from/ knotsBaromVisibWave heightAir tempDewpointWater temp
2017-Jan-19 18:22N 18°02' W 063°06'0 0.0
2017-Jan-19 17:31N 18°02' W 063°06'0 0.0
2017-Jan-19 16:25N 18°02' W 063°06'0 0.0
2017-Jan-19 15:25N 18°02' W 063°06'0 0.0
2017-Jan-19 14:25N 18°02' W 063°06'0 0.0
2017-Jan-19 13:28N 18°02' W 063°05'0 0.0
2017-Jan-19 12:28N 18°02' W 063°06'0 0.0
2017-Jan-19 11:28N 18°02' W 063°06'0 0.0
2017-Jan-19 10:31N 18°02' W 063°05'0 0.0
2017-Jan-19 09:16N 18°02' W 063°06'0 0.0
2017-Jan-19 08:16N 18°02' W 063°05'0 0.0
2017-Jan-19 07:31N 18°02' W 063°05'0 0.0
2017-Jan-19 06:31N 18°02' W 063°06'0 0.0
2017-Jan-19 05:19N 18°02' W 063°06'0 0.0
2017-Jan-19 04:31N 18°02' W 063°05'0 0.0
2017-Jan-19 03:19N 18°02' W 063°06'0 0.0
2017-Jan-19 02:25N 18°02' W 063°06'0 0.0
2017-Jan-19 01:25N 18°02' W 063°06'0 0.0
2017-Jan-19 00:25N 18°02' W 063°06'0 0.0
2017-Jan-18 23:28N 18°02' W 063°06'0 0.0
2017-Jan-18 22:25N 18°02' W 063°05'0 0.0
2017-Jan-18 21:28N 18°02' W 063°06'0 0.0
2017-Jan-18 20:28N 18°02' W 063°06'0 0.0
2017-Jan-18 19:31N 18°02' W 063°06'0 0.0
2017-Jan-18 18:31N 18°02' W 063°06'0 0.0
2017-Jan-18 17:31N 18°02' W 063°06'0 0.0
2017-Jan-18 16:31N 18°02' W 063°06'0 0.0
2017-Jan-18 15:19N 18°02' W 063°05'0 0.0
2017-Jan-18 14:31N 18°02' W 063°06'0 0.0
2017-Jan-18 13:19N 18°02' W 063°05'0 0.0
2017-Jan-18 12:22N 18°02' W 063°06'0 0.0
2017-Jan-18 11:25N 18°02' W 063°06'0 0.0
2017-Jan-18 10:22N 18°02' W 063°06'0 0.0
2017-Jan-18 09:25N 18°02' W 063°06'0 0.0
2017-Jan-18 08:22N 18°02' W 063°05'0 0.0
2017-Jan-18 07:28N 18°02' W 063°06'0 0.0
2017-Jan-18 06:28N 18°02' W 063°06'0 0.0
2017-Jan-18 05:31N 18°02' W 063°06'0 0.0
2017-Jan-18 04:31N 18°02' W 063°06'0 0.0
2017-Jan-18 03:31N 18°02' W 063°06'0 0.0
2017-Jan-18 02:31N 18°02' W 063°06'0 0.0
2017-Jan-18 01:31N 18°02' W 063°06'0 0.0
2017-Jan-18 00:31N 18°02' W 063°05'0 0.0
2017-Jan-17 23:22N 18°02' W 063°05'0 0.0
2017-Jan-17 22:22N 18°02' W 063°06'0 0.0
2017-Jan-17 21:31N 18°02' W 063°06'0 0.0
2017-Jan-17 20:25N 18°02' W 063°05'0 0.0
2017-Jan-17 19:25N 18°02' W 063°06'0 0.0
2017-Jan-17 18:28N 18°02' W 063°06'0 0.0
2017-Jan-17 17:28N 18°02' W 063°06'0 0.0
2017-Jan-17 16:28N 18°02' W 063°06'0 0.0
2017-Jan-17 15:31N 18°02' W 063°06'0 0.0
2017-Jan-17 14:31N 18°02' W 063°05'0 0.4
2017-Jan-17 13:30N 18°02' W 063°06'1 0.7
2017-Jan-17 12:32N 18°02' W 063°07'0 0.0
2017-Jan-17 11:32N 18°02' W 063°07'0 0.0
2017-Jan-17 10:32N 18°02' W 063°07'0 0.0
2017-Jan-17 09:23N 18°02' W 063°07'0 0.0
2017-Jan-17 08:26N 18°02' W 063°07'0 0.0
2017-Jan-17 07:26N 18°02' W 063°06'3 3.5
2017-Jan-17 06:33N 18°02' W 063°10'1413.5
2017-Jan-17 05:33N 18°04' W 063°24'1413.4
2017-Jan-17 04:30N 18°06' W 063°38'6613.3
2017-Jan-16 23:32N 18°17' W 064°47'4 1.9
2017-Jan-16 21:33N 18°19' W 064°50'2 0.3
2017-Jan-16 14:33N 18°21' W 064°51'3 2.3
2017-Jan-16 13:15N 18°20' W 064°48'0 0.0
2017-Jan-16 12:27N 18°20' W 064°48'9 7.5
2017-Jan-16 11:13N 18°19' W 064°38'1 1.0
2017-Jan-16 10:19N 18°19' W 064°37'0 0.0
2017-Jan-16 05:19N 18°19' W 064°38'0 0.0
2017-Jan-15 10:07N 18°19' W 064°38'0 0.0
2017-Jan-15 09:07N 18°19' W 064°38'0 0.0
2017-Jan-15 08:12N 18°19' W 064°37'0 0.1
2017-Jan-15 07:25N 18°19' W 064°38'0 0.0
2017-Jan-15 06:13N 18°19' W 064°38'1 0.2
2017-Jan-15 01:33N 18°20' W 064°38'1410.4
2017-Jan-15 00:14N 18°28' W 064°27'5 0.1
2017-Jan-13 07:10N 18°31' W 064°23'5 8.3
2017-Jan-13 06:33N 18°28' W 064°27'1110.8
2017-Jan-13 05:33N 18°22' W 064°37'10 9.7
2017-Jan-13 04:33N 18°17' W 064°45'  
2017-Jan-10 12:32N 18°17' W 064°52'7312.2
2017-Jan-10 06:32N 18°06' W 063°36'1212.4
2017-Jan-10 05:33N 18°04' W 063°23'1211.9
2017-Jan-10 04:33N 18°02' W 063°11'4 3.9
2017-Jan-10 03:32N 18°02' W 063°06'0 0.0
2017-Jan-10 02:31N 18°02' W 063°06'0 0.0
2017-Jan-10 01:23N 18°02' W 063°06'0 0.0
2017-Jan-10 00:25N 18°02' W 063°06'0 0.0
2017-Jan-09 23:25N 18°02' W 063°06'0 0.0
2017-Jan-09 22:23N 18°02' W 063°06'0 0.0
2017-Jan-09 21:28N 18°02' W 063°06'0 0.0
2017-Jan-09 20:31N 18°02' W 063°06'1 0.9
2017-Jan-09 19:32N 18°02' W 063°06'0 0.0
2017-Jan-09 18:31N 18°02' W 063°06'  
Track history (hours):
 
Tides and Currents Weather Stations Pressure Air Temp Water Temp Dewpoint Dewpoint Depression Visibility Wind Speed Wind Dir Waves Ship Positions

Baton Rouge

Last reported at 2017-Jan-19 18:22 UTC. Time now 2017-Jan-19 19:19 UTC.
Position N 18°02' W 063°06'.

Length 62 m; draft 3.7 m.

Type: Pleasure craft. MMSI: 235077185.

Date/timePositionNaut miles runAvg speedWind from/ knotsBaromVisibWave heightAir tempDewpointWater temp
2017-Jan-19 18:22N 18°02' W 063°06'0 0.0
2017-Jan-19 17:31N 18°02' W 063°06'0 0.0
2017-Jan-19 16:25N 18°02' W 063°06'0 0.0
2017-Jan-19 15:25N 18°02' W 063°06'0 0.0
2017-Jan-19 14:25N 18°02' W 063°06'0 0.0
2017-Jan-19 13:28N 18°02' W 063°05'0 0.0
2017-Jan-19 12:28N 18°02' W 063°06'0 0.0
2017-Jan-19 11:28N 18°02' W 063°06'0 0.0
2017-Jan-19 10:31N 18°02' W 063°05'0 0.0
2017-Jan-19 09:16N 18°02' W 063°06'0 0.0
2017-Jan-19 08:16N 18°02' W 063°05'0 0.0
2017-Jan-19 07:31N 18°02' W 063°05'0 0.0
2017-Jan-19 06:31N 18°02' W 063°06'0 0.0
2017-Jan-19 05:19N 18°02' W 063°06'0 0.0
2017-Jan-19 04:31N 18°02' W 063°05'0 0.0
2017-Jan-19 03:19N 18°02' W 063°06'0 0.0
2017-Jan-19 02:25N 18°02' W 063°06'0 0.0
2017-Jan-19 01:25N 18°02' W 063°06'0 0.0
2017-Jan-19 00:25N 18°02' W 063°06'0 0.0
2017-Jan-18 23:28N 18°02' W 063°06'0 0.0
2017-Jan-18 22:25N 18°02' W 063°05'0 0.0
2017-Jan-18 21:28N 18°02' W 063°06'0 0.0
2017-Jan-18 20:28N 18°02' W 063°06'0 0.0
2017-Jan-18 19:31N 18°02' W 063°06'0 0.0
2017-Jan-18 18:31N 18°02' W 063°06'0 0.0
2017-Jan-18 17:31N 18°02' W 063°06'0 0.0
2017-Jan-18 16:31N 18°02' W 063°06'0 0.0
2017-Jan-18 15:19N 18°02' W 063°05'0 0.0
2017-Jan-18 14:31N 18°02' W 063°06'0 0.0
2017-Jan-18 13:19N 18°02' W 063°05'0 0.0
2017-Jan-18 12:22N 18°02' W 063°06'0 0.0
2017-Jan-18 11:25N 18°02' W 063°06'0 0.0
2017-Jan-18 10:22N 18°02' W 063°06'0 0.0
2017-Jan-18 09:25N 18°02' W 063°06'0 0.0
2017-Jan-18 08:22N 18°02' W 063°05'0 0.0
2017-Jan-18 07:28N 18°02' W 063°06'0 0.0
2017-Jan-18 06:28N 18°02' W 063°06'0 0.0
2017-Jan-18 05:31N 18°02' W 063°06'0 0.0
2017-Jan-18 04:31N 18°02' W 063°06'0 0.0
2017-Jan-18 03:31N 18°02' W 063°06'0 0.0
2017-Jan-18 02:31N 18°02' W 063°06'0 0.0
2017-Jan-18 01:31N 18°02' W 063°06'0 0.0
2017-Jan-18 00:31N 18°02' W 063°05'0 0.0
2017-Jan-17 23:22N 18°02' W 063°05'0 0.0
2017-Jan-17 22:22N 18°02' W 063°06'0 0.0
2017-Jan-17 21:31N 18°02' W 063°06'0 0.0
2017-Jan-17 20:25N 18°02' W 063°05'0 0.0
2017-Jan-17 19:25N 18°02' W 063°06'0 0.0
2017-Jan-17 18:28N 18°02' W 063°06'0 0.0
2017-Jan-17 17:28N 18°02' W 063°06'0 0.0
2017-Jan-17 16:28N 18°02' W 063°06'0 0.0
2017-Jan-17 15:31N 18°02' W 063°06'0 0.0
2017-Jan-17 14:31N 18°02' W 063°05'0 0.4
2017-Jan-17 13:30N 18°02' W 063°06'1 0.7
2017-Jan-17 12:32N 18°02' W 063°07'0 0.0
2017-Jan-17 11:32N 18°02' W 063°07'0 0.0
2017-Jan-17 10:32N 18°02' W 063°07'0 0.0
2017-Jan-17 09:23N 18°02' W 063°07'0 0.0
2017-Jan-17 08:26N 18°02' W 063°07'0 0.0
2017-Jan-17 07:26N 18°02' W 063°06'3 3.5
2017-Jan-17 06:33N 18°02' W 063°10'1413.5
2017-Jan-17 05:33N 18°04' W 063°24'1413.4
2017-Jan-17 04:30N 18°06' W 063°38'6613.3
2017-Jan-16 23:32N 18°17' W 064°47'4 1.9
2017-Jan-16 21:33N 18°19' W 064°50'2 0.3
2017-Jan-16 14:33N 18°21' W 064°51'3 2.3
2017-Jan-16 13:15N 18°20' W 064°48'0 0.0
2017-Jan-16 12:27N 18°20' W 064°48'9 7.5
2017-Jan-16 11:13N 18°19' W 064°38'1 1.0
2017-Jan-16 10:19N 18°19' W 064°37'0 0.0
2017-Jan-16 05:19N 18°19' W 064°38'0 0.0
2017-Jan-15 10:07N 18°19' W 064°38'0 0.0
2017-Jan-15 09:07N 18°19' W 064°38'0 0.0
2017-Jan-15 08:12N 18°19' W 064°37'0 0.1
2017-Jan-15 07:25N 18°19' W 064°38'0 0.0
2017-Jan-15 06:13N 18°19' W 064°38'1 0.2
2017-Jan-15 01:33N 18°20' W 064°38'1410.4
2017-Jan-15 00:14N 18°28' W 064°27'5 0.1
2017-Jan-13 07:10N 18°31' W 064°23'5 8.3
2017-Jan-13 06:33N 18°28' W 064°27'1110.8
2017-Jan-13 05:33N 18°22' W 064°37'10 9.7
2017-Jan-13 04:33N 18°17' W 064°45'  
2017-Jan-10 12:32N 18°17' W 064°52'7312.2
2017-Jan-10 06:32N 18°06' W 063°36'1212.4
2017-Jan-10 05:33N 18°04' W 063°23'1211.9
2017-Jan-10 04:33N 18°02' W 063°11'4 3.9
2017-Jan-10 03:32N 18°02' W 063°06'0 0.0
2017-Jan-10 02:31N 18°02' W 063°06'0 0.0
2017-Jan-10 01:23N 18°02' W 063°06'0 0.0
2017-Jan-10 00:25N 18°02' W 063°06'0 0.0
2017-Jan-09 23:25N 18°02' W 063°06'0 0.0
2017-Jan-09 22:23N 18°02' W 063°06'0 0.0
2017-Jan-09 21:28N 18°02' W 063°06'0 0.0
2017-Jan-09 20:31N 18°02' W 063°06'1 0.9
2017-Jan-09 19:32N 18°02' W 063°06'0 0.0
2017-Jan-09 18:31N 18°02' W 063°06'  

Dump ship's entire track history